createdAt,value
2023-06-30T00:00:41.084Z,46.85
2023-06-30T00:02:43.493Z,46.68
2023-06-30T00:04:47.002Z,46.64
2023-06-30T00:06:48.844Z,46.66
2023-06-30T00:08:51.339Z,46.73
2023-06-30T00:10:53.092Z,46.43
2023-06-30T00:12:54.731Z,46.45
2023-06-30T00:14:56.704Z,47.01
2023-06-30T00:16:58.513Z,47.00
2023-06-30T00:19:00.417Z,47.06
2023-06-30T00:21:04.575Z,47.27
2023-06-30T00:23:06.394Z,47.02
2023-06-30T00:25:08.961Z,47.33
2023-06-30T00:27:10.708Z,47.18
2023-06-30T00:29:12.562Z,47.12
2023-06-30T00:31:14.348Z,46.97
2023-06-30T00:33:16.089Z,46.67
2023-06-30T00:35:18.021Z,45.90
2023-06-30T00:37:21.102Z,45.66
2023-06-30T00:39:22.984Z,45.48
2023-06-30T00:41:25.299Z,46.44
2023-06-30T00:43:27.134Z,47.13
2023-06-30T00:45:28.871Z,47.28
2023-06-30T00:47:31.118Z,46.73
2023-06-30T00:49:34.314Z,46.98
2023-06-30T00:51:36.041Z,46.44
2023-06-30T00:53:39.516Z,46.49
2023-06-30T00:55:41.853Z,46.25
2023-06-30T00:57:43.979Z,46.16
2023-06-30T00:59:45.739Z,45.18
2023-06-30T01:03:56.929Z,45.11
2023-06-30T01:06:02.034Z,46.49
2023-06-30T01:08:09.832Z,46.33
2023-06-30T01:10:16.319Z,46.47
2023-06-30T01:12:18.380Z,45.95
2023-06-30T01:14:22.630Z,45.56
2023-06-30T01:16:25.653Z,46.56
2023-06-30T01:18:28.701Z,47.11
2023-06-30T01:20:32.220Z,46.95
2023-06-30T01:22:39.609Z,46.50
2023-06-30T01:24:43.145Z,46.02
2023-06-30T01:26:46.412Z,46.03
2023-06-30T01:28:49.205Z,46.13
2023-06-30T01:30:51.070Z,46.29
2023-06-30T01:32:53.042Z,46.07
2023-06-30T01:34:54.730Z,46.38
2023-06-30T01:36:56.408Z,46.29
2023-06-30T01:38:58.049Z,45.73
2023-06-30T01:41:01.039Z,46.29
2023-06-30T01:43:05.062Z,46.67
2023-06-30T01:45:08.548Z,46.67
2023-06-30T01:47:11.118Z,46.62
2023-06-30T01:49:14.259Z,46.94
2023-06-30T01:51:17.320Z,46.84
2023-06-30T01:53:19.105Z,46.84
2023-06-30T01:55:20.817Z,45.85
2023-06-30T01:57:22.478Z,45.66
2023-06-30T01:59:28.654Z,45.92
2023-06-30T02:01:30.413Z,45.09
2023-06-30T02:03:32.194Z,45.71
2023-06-30T02:05:34.181Z,44.67
2023-06-30T02:07:36.226Z,44.97
2023-06-30T02:09:47.267Z,45.80
2023-06-30T02:11:50.422Z,44.74
2023-06-30T02:13:52.505Z,45.07
2023-06-30T02:15:55.591Z,45.94
2023-06-30T02:17:57.239Z,45.73
2023-06-30T02:19:59.089Z,45.91
2023-06-30T02:22:00.916Z,46.04
2023-06-30T02:24:02.752Z,45.59
2023-06-30T02:26:15.184Z,45.78
2023-06-30T02:28:17.169Z,47.03
2023-06-30T02:30:18.945Z,47.30
2023-06-30T02:32:24.606Z,46.08
2023-06-30T02:34:26.372Z,45.82
2023-06-30T02:36:28.060Z,45.86
2023-06-30T02:38:29.788Z,46.31
2023-06-30T02:40:31.412Z,45.83
2023-06-30T02:42:33.119Z,45.84
2023-06-30T02:44:34.863Z,46.00
2023-06-30T02:46:36.649Z,46.40
2023-06-30T02:48:39.964Z,46.50
2023-06-30T02:50:42.126Z,45.90
2023-06-30T02:52:43.819Z,47.28
2023-06-30T02:54:45.468Z,46.49
2023-06-30T02:56:47.193Z,46.25
2023-06-30T02:58:51.602Z,46.63
2023-06-30T03:00:55.569Z,47.53
2023-06-30T03:02:57.443Z,47.57
2023-06-30T03:05:01.645Z,46.10
2023-06-30T03:07:03.692Z,46.37
2023-06-30T03:09:07.958Z,47.30
2023-06-30T03:11:09.750Z,46.80
2023-06-30T03:13:11.636Z,47.06
2023-06-30T03:15:17.990Z,47.48
2023-06-30T03:17:19.703Z,47.47
2023-06-30T03:19:21.347Z,46.74
2023-06-30T03:21:24.448Z,46.21
2023-06-30T03:23:26.214Z,46.26
2023-06-30T03:25:27.934Z,46.73
2023-06-30T03:27:29.692Z,46.01
2023-06-30T03:29:31.545Z,46.04
2023-06-30T03:31:33.335Z,46.35
2023-06-30T03:33:35.304Z,46.74
2023-06-30T03:35:37.023Z,46.44
2023-06-30T03:37:40.100Z,47.54
2023-06-30T03:39:41.719Z,47.77
2023-06-30T03:41:43.356Z,48.29
2023-06-30T03:43:45.027Z,48.07
2023-06-30T03:45:47.080Z,47.65
2023-06-30T03:47:49.014Z,47.50
2023-06-30T03:49:50.764Z,47.96
2023-06-30T03:51:52.457Z,47.79
2023-06-30T03:53:55.452Z,47.78
2023-06-30T03:55:59.393Z,47.73
2023-06-30T03:58:02.891Z,47.99
2023-06-30T04:00:05.401Z,48.03
2023-06-30T04:02:07.165Z,47.74
2023-06-30T04:04:09.105Z,47.52
2023-06-30T04:06:11.344Z,47.34
2023-06-30T04:08:13.111Z,47.56
2023-06-30T04:10:16.315Z,47.99
2023-06-30T04:12:18.338Z,47.94
2023-06-30T04:14:20.343Z,48.21
2023-06-30T04:16:22.374Z,47.77
2023-06-30T04:18:24.103Z,47.89
2023-06-30T04:20:26.211Z,47.56
2023-06-30T04:22:27.946Z,47.99
2023-06-30T04:24:29.600Z,49.90
2023-06-30T04:26:34.443Z,51.00
2023-06-30T04:28:36.203Z,52.92
2023-06-30T04:30:41.372Z,53.25
2023-06-30T04:32:43.578Z,52.56
2023-06-30T04:34:45.320Z,53.50
2023-06-30T04:36:46.956Z,54.91
2023-06-30T04:38:48.684Z,53.44
2023-06-30T04:41:08.886Z,55.43
2023-06-30T04:43:11.990Z,55.12
2023-06-30T04:45:14.822Z,55.03
2023-06-30T04:47:17.881Z,56.35
2023-06-30T04:49:21.079Z,55.65
2023-06-30T04:51:31.261Z,55.34
2023-06-30T04:53:33.012Z,56.05
2023-06-30T04:55:34.748Z,55.47
2023-06-30T04:57:36.386Z,55.59
2023-06-30T04:59:39.921Z,52.96
2023-06-30T05:01:41.625Z,53.23
2023-06-30T05:03:43.396Z,54.71
2023-06-30T05:05:45.663Z,53.19
2023-06-30T05:07:47.534Z,52.28
2023-06-30T05:09:49.280Z,53.66
2023-06-30T05:11:51.427Z,54.27
2023-06-30T05:13:53.090Z,54.47
2023-06-30T05:15:56.198Z,54.17
2023-06-30T05:17:58.076Z,54.79
2023-06-30T05:19:59.842Z,55.04
2023-06-30T05:22:01.756Z,56.24
2023-06-30T05:24:03.807Z,55.54
2023-06-30T05:26:06.073Z,57.19
2023-06-30T05:28:07.757Z,54.74
2023-06-30T05:30:10.355Z,54.81
2023-06-30T05:32:13.363Z,53.73
2023-06-30T05:34:14.938Z,53.30
2023-06-30T05:36:16.578Z,52.61
2023-06-30T05:38:18.236Z,52.93
2023-06-30T05:40:19.953Z,54.34
2023-06-30T05:42:21.702Z,54.11
2023-06-30T05:44:26.212Z,54.10
2023-06-30T05:46:27.975Z,52.34
2023-06-30T05:48:31.131Z,53.53
2023-06-30T05:50:33.288Z,54.24
2023-06-30T05:52:35.039Z,54.23
2023-06-30T05:54:36.801Z,50.59
2023-06-30T05:56:38.655Z,49.40
2023-06-30T05:58:40.269Z,49.74
2023-06-30T06:00:41.938Z,49.52
2023-06-30T06:02:43.871Z,49.75
2023-06-30T06:04:47.267Z,50.01
2023-06-30T06:06:49.085Z,49.36
2023-06-30T06:08:50.731Z,48.51
2023-06-30T06:10:52.465Z,48.69
2023-06-30T06:12:54.229Z,51.18
2023-06-30T06:14:55.923Z,50.75
2023-06-30T06:16:57.635Z,48.15
2023-06-30T06:18:59.388Z,47.80
2023-06-30T06:21:03.293Z,48.09
2023-06-30T06:23:04.976Z,48.43
2023-06-30T06:25:07.675Z,48.02
2023-06-30T06:27:09.272Z,47.54
2023-06-30T06:29:10.931Z,47.69
2023-06-30T06:31:12.642Z,48.18
2023-06-30T06:33:14.471Z,48.38
2023-06-30T06:35:17.995Z,48.09
2023-06-30T06:37:21.129Z,47.56
2023-06-30T06:39:22.992Z,47.31
2023-06-30T06:41:24.715Z,46.95
2023-06-30T06:43:26.401Z,47.19
2023-06-30T06:45:28.114Z,46.86
2023-06-30T06:48:06.757Z,47.35
2023-06-30T06:50:09.102Z,46.60
2023-06-30T06:52:11.060Z,48.03
2023-06-30T06:54:16.812Z,47.48
2023-06-30T06:56:18.681Z,47.62
2023-06-30T06:58:21.352Z,48.73
2023-06-30T07:00:23.381Z,47.63
2023-06-30T07:02:25.070Z,47.58
2023-06-30T07:04:26.733Z,47.55
2023-06-30T07:06:28.382Z,46.91
2023-06-30T07:08:30.099Z,47.20
2023-06-30T07:10:33.444Z,46.36
2023-06-30T07:12:35.044Z,46.10
2023-06-30T07:14:37.167Z,46.28
2023-06-30T07:16:38.846Z,46.37
2023-06-30T07:18:40.608Z,46.57
2023-06-30T07:20:42.310Z,46.93
2023-06-30T07:22:43.951Z,46.67
2023-06-30T07:24:45.744Z,47.26
2023-06-30T07:26:48.729Z,47.06
2023-06-30T07:28:50.327Z,46.54
2023-06-30T07:30:52.266Z,46.46
2023-06-30T07:33:00.715Z,46.69
2023-06-30T07:35:03.928Z,47.03
2023-06-30T07:37:06.456Z,48.49
2023-06-30T07:39:09.396Z,48.95
2023-06-30T07:41:11.504Z,48.76
2023-06-30T07:43:14.691Z,48.05
2023-06-30T07:45:17.848Z,47.52
2023-06-30T07:47:19.594Z,47.97
2023-06-30T07:49:21.392Z,47.10
2023-06-30T07:51:23.381Z,47.44
2023-06-30T07:53:25.432Z,47.29
2023-06-30T07:55:27.421Z,46.69
2023-06-30T07:57:30.769Z,47.10
2023-06-30T07:59:34.024Z,47.37
2023-06-30T08:01:35.890Z,48.54
2023-06-30T08:03:37.820Z,48.83
2023-06-30T08:05:39.904Z,49.96
2023-06-30T08:07:48.004Z,48.66
2023-06-30T08:09:51.666Z,47.28
2023-06-30T08:11:53.395Z,49.37
2023-06-30T08:13:55.040Z,49.06
2023-06-30T08:15:59.334Z,50.00
2023-06-30T08:18:01.258Z,50.50
2023-06-30T08:20:12.440Z,49.85
2023-06-30T08:22:14.652Z,48.39
2023-06-30T08:24:16.454Z,48.61
2023-06-30T08:26:18.247Z,48.18
2023-06-30T08:28:19.967Z,47.37
2023-06-30T08:30:24.660Z,47.33
2023-06-30T08:32:28.492Z,47.44
2023-06-30T08:34:30.167Z,47.68
2023-06-30T08:36:31.914Z,47.40
2023-06-30T08:38:34.036Z,47.18
2023-06-30T08:40:36.212Z,46.60
2023-06-30T08:42:41.498Z,46.71
2023-06-30T08:44:45.703Z,46.13
2023-06-30T08:46:48.164Z,46.67
2023-06-30T08:48:51.737Z,46.69
2023-06-30T08:50:54.396Z,46.31
2023-06-30T08:52:56.315Z,46.38
2023-06-30T08:54:58.123Z,46.28
2023-06-30T08:57:01.886Z,46.80
2023-06-30T08:59:03.757Z,46.78
2023-06-30T09:01:06.143Z,46.44
2023-06-30T09:03:08.183Z,46.47
2023-06-30T09:05:12.207Z,46.08
2023-06-30T09:07:22.868Z,46.11
2023-06-30T09:09:28.001Z,46.23
2023-06-30T09:11:31.592Z,45.81
2023-06-30T09:13:35.343Z,45.86
2023-06-30T09:15:38.877Z,45.38
2023-06-30T09:17:46.658Z,45.40
2023-06-30T09:19:48.732Z,45.61
2023-06-30T09:21:52.567Z,45.13
2023-06-30T09:23:54.468Z,44.77
2023-06-30T09:25:56.321Z,45.18
2023-06-30T09:27:58.397Z,45.16
2023-06-30T09:30:00.049Z,44.97
2023-06-30T09:32:02.036Z,45.09
2023-06-30T09:34:11.675Z,44.59
2023-06-30T09:36:17.395Z,44.86
2023-06-30T09:38:20.581Z,44.72
2023-06-30T09:40:25.774Z,44.67
2023-06-30T09:42:27.470Z,44.96
2023-06-30T09:44:38.809Z,44.84
2023-06-30T09:46:46.620Z,44.91
2023-06-30T09:48:48.497Z,44.59
2023-06-30T09:50:52.855Z,44.86
2023-06-30T09:52:54.739Z,44.94
2023-06-30T09:54:57.827Z,44.63
2023-06-30T09:57:00.211Z,44.88
2023-06-30T09:59:01.854Z,44.35
2023-06-30T10:01:03.636Z,43.97
2023-06-30T10:03:06.624Z,45.02
2023-06-30T10:05:08.956Z,45.07
2023-06-30T10:07:14.281Z,44.60
2023-06-30T10:09:18.391Z,44.27
2023-06-30T10:11:23.409Z,43.99
2023-06-30T10:13:26.960Z,44.05
2023-06-30T10:15:31.563Z,44.06
2023-06-30T10:17:33.549Z,44.12
2023-06-30T10:19:36.890Z,44.01
2023-06-30T10:21:38.791Z,43.95
2023-06-30T10:23:43.404Z,43.89
2023-06-30T10:25:45.844Z,43.64
2023-06-30T10:27:49.489Z,43.87
2023-06-30T10:29:51.828Z,43.29
2023-06-30T10:33:57.422Z,43.52
2023-06-30T10:36:01.103Z,43.78
2023-06-30T10:38:03.014Z,43.67
2023-06-30T10:40:07.697Z,43.44
2023-06-30T10:42:12.203Z,43.12
2023-06-30T10:44:15.833Z,43.35
2023-06-30T10:46:19.375Z,43.21
2023-06-30T10:48:21.085Z,43.63
2023-06-30T10:50:23.234Z,43.27
2023-06-30T10:52:29.412Z,43.65
2023-06-30T10:54:38.425Z,43.42
2023-06-30T10:56:40.239Z,43.24
2023-06-30T10:58:42.237Z,43.38
2023-06-30T11:01:02.848Z,43.01
2023-06-30T11:03:06.384Z,43.04
2023-06-30T11:05:22.264Z,43.00
2023-06-30T11:07:25.455Z,42.87
2023-06-30T11:09:27.842Z,42.87
2023-06-30T11:11:29.574Z,42.91
2023-06-30T11:13:41.552Z,43.00
2023-06-30T11:15:53.437Z,42.56
2023-06-30T11:18:01.890Z,42.69
2023-06-30T11:20:11.986Z,42.40
2023-06-30T11:22:24.488Z,42.65
2023-06-30T11:24:27.993Z,42.96
2023-06-30T11:26:36.862Z,42.65
2023-06-30T11:28:40.266Z,42.59
2023-06-30T11:30:42.181Z,42.25
2023-06-30T11:32:43.936Z,42.40
2023-06-30T11:34:47.767Z,42.71
2023-06-30T11:36:59.161Z,42.39
2023-06-30T11:39:01.708Z,42.45
2023-06-30T11:41:03.336Z,42.97
2023-06-30T11:43:05.156Z,42.63
2023-06-30T11:45:08.030Z,42.51
2023-06-30T11:47:10.014Z,42.03
2023-06-30T11:49:11.873Z,42.33
2023-06-30T11:51:15.035Z,41.99
2023-06-30T11:53:16.920Z,41.47
2023-06-30T11:55:18.941Z,41.69
2023-06-30T11:57:20.828Z,41.44
2023-06-30T11:59:22.566Z,41.72
2023-06-30T12:01:24.418Z,41.96
2023-06-30T12:03:26.369Z,41.34
2023-06-30T12:05:28.968Z,41.51
2023-06-30T12:07:32.160Z,41.68
2023-06-30T12:09:34.908Z,41.71
2023-06-30T12:11:36.781Z,41.45
2023-06-30T12:13:39.280Z,41.30
2023-06-30T12:15:41.615Z,41.37
2023-06-30T12:17:43.534Z,41.09
2023-06-30T12:19:46.006Z,40.99
2023-06-30T12:21:57.669Z,40.92
2023-06-30T12:24:01.023Z,40.53
2023-06-30T12:26:03.005Z,40.52
2023-06-30T12:28:05.249Z,40.51
2023-06-30T12:30:15.128Z,40.46
2023-06-30T12:32:17.594Z,40.66
2023-06-30T12:34:31.670Z,40.40
2023-06-30T12:36:33.500Z,39.76
2023-06-30T12:38:35.711Z,40.16
2023-06-30T12:40:39.026Z,39.96
2023-06-30T12:42:46.331Z,39.08
2023-06-30T12:44:49.434Z,39.88
2023-06-30T12:46:59.910Z,39.98
2023-06-30T12:49:01.963Z,39.96
2023-06-30T12:51:04.105Z,40.13
2023-06-30T12:53:05.884Z,40.11
2023-06-30T12:55:08.487Z,40.40
2023-06-30T12:57:11.621Z,40.34
2023-06-30T12:59:13.343Z,40.06
2023-06-30T13:01:15.190Z,39.40
2023-06-30T13:03:17.183Z,40.59
2023-06-30T13:05:19.352Z,39.27
2023-06-30T13:07:22.509Z,39.10
2023-06-30T13:09:24.335Z,38.98
2023-06-30T13:11:25.998Z,39.06
2023-06-30T13:13:29.357Z,39.91
2023-06-30T13:15:31.103Z,39.55
2023-06-30T13:17:36.070Z,39.55
2023-06-30T13:19:37.856Z,39.87
2023-06-30T13:21:39.745Z,39.72
2023-06-30T13:23:42.803Z,40.36
2023-06-30T13:25:45.095Z,39.81
2023-06-30T13:27:47.092Z,39.39
2023-06-30T13:29:52.218Z,38.96
2023-06-30T13:31:54.636Z,38.53
2023-06-30T13:33:56.548Z,38.78
2023-06-30T13:35:58.227Z,38.72
2023-06-30T13:38:01.654Z,38.43
2023-06-30T13:40:03.692Z,37.98
2023-06-30T13:42:06.529Z,38.05
2023-06-30T13:44:10.615Z,38.61
2023-06-30T13:46:13.763Z,38.23
2023-06-30T13:48:15.499Z,38.37
2023-06-30T13:50:17.185Z,37.66
2023-06-30T13:52:19.095Z,38.18
2023-06-30T13:54:23.113Z,38.39
2023-06-30T13:56:25.506Z,38.80
2023-06-30T13:58:27.236Z,38.75
2023-06-30T14:00:30.531Z,38.04
2023-06-30T14:02:34.389Z,38.24
2023-06-30T14:04:36.187Z,37.98
2023-06-30T14:06:38.306Z,37.59
2023-06-30T14:08:39.969Z,37.39
2023-06-30T14:10:41.649Z,37.31
2023-06-30T14:12:43.328Z,37.36
2023-06-30T14:14:47.682Z,36.89
2023-06-30T14:16:50.269Z,36.55
2023-06-30T14:18:53.438Z,35.83
2023-06-30T14:20:55.153Z,36.24
2023-06-30T14:22:57.195Z,36.20
2023-06-30T14:24:58.816Z,36.01
2023-06-30T14:27:00.700Z,36.53
2023-06-30T14:29:02.430Z,36.84
2023-06-30T14:31:04.253Z,36.91
2023-06-30T14:33:06.063Z,37.10
2023-06-30T14:35:09.513Z,37.10
2023-06-30T14:37:14.263Z,37.63
2023-06-30T14:39:16.092Z,37.17
2023-06-30T14:41:17.850Z,37.20
2023-06-30T14:43:19.912Z,37.54
2023-06-30T14:45:21.867Z,37.57
2023-06-30T14:47:23.590Z,37.03
2023-06-30T14:49:25.285Z,37.30
2023-06-30T14:51:28.476Z,37.53
2023-06-30T14:53:30.799Z,37.56
2023-06-30T14:55:32.474Z,37.50
2023-06-30T14:57:34.509Z,37.19
2023-06-30T14:59:54.264Z,36.62
2023-06-30T15:01:56.023Z,36.71
2023-06-30T15:03:58.122Z,37.10
2023-06-30T15:06:02.238Z,37.00
2023-06-30T15:08:06.126Z,37.35
2023-06-30T15:10:09.304Z,37.42
2023-06-30T15:12:11.165Z,37.24
2023-06-30T15:14:12.964Z,36.51
2023-06-30T15:16:14.933Z,36.47
2023-06-30T15:18:16.794Z,36.37
2023-06-30T15:20:18.529Z,37.11
2023-06-30T15:22:20.285Z,36.80
2023-06-30T15:24:23.469Z,36.64
2023-06-30T15:26:25.283Z,35.81
2023-06-30T15:28:27.017Z,37.35
2023-06-30T15:30:28.760Z,37.14
2023-06-30T15:32:30.578Z,36.98
2023-06-30T15:34:32.470Z,37.00
2023-06-30T15:36:34.228Z,36.36
2023-06-30T15:38:35.935Z,36.71
2023-06-30T15:40:41.275Z,36.45
2023-06-30T15:42:43.757Z,36.92
2023-06-30T15:44:45.526Z,36.91
2023-06-30T15:46:47.229Z,36.81
2023-06-30T15:48:49.094Z,36.41
2023-06-30T15:50:51.169Z,35.26
2023-06-30T15:52:52.843Z,36.59
2023-06-30T15:55:07.543Z,36.14
2023-06-30T15:57:10.714Z,34.38
2023-06-30T15:59:12.397Z,35.96
2023-06-30T16:01:16.673Z,36.42
2023-06-30T16:03:18.791Z,36.54
2023-06-30T16:05:20.743Z,36.49
2023-06-30T16:07:22.828Z,35.69
2023-06-30T16:09:24.652Z,36.02
2023-06-30T16:11:26.432Z,35.03
2023-06-30T16:13:29.415Z,35.87
2023-06-30T16:15:31.046Z,36.25
2023-06-30T16:17:32.946Z,36.01
2023-06-30T16:19:34.612Z,36.64
2023-06-30T16:21:36.393Z,36.06
2023-06-30T16:23:38.364Z,36.41
2023-06-30T16:25:40.068Z,35.17
2023-06-30T16:27:41.937Z,35.51
2023-06-30T16:29:45.141Z,35.29
2023-06-30T16:31:46.917Z,36.62
2023-06-30T16:33:49.012Z,36.47
2023-06-30T16:35:51.133Z,36.20
2023-06-30T16:37:53.131Z,36.19
2023-06-30T16:39:54.907Z,36.21
2023-06-30T16:41:56.828Z,35.72
2023-06-30T16:43:58.483Z,35.76
2023-06-30T16:46:01.490Z,36.03
2023-06-30T16:48:03.784Z,35.77
2023-06-30T16:50:07.479Z,35.77
2023-06-30T16:52:09.273Z,35.82
2023-06-30T16:54:13.189Z,36.14
2023-06-30T16:56:14.997Z,36.13
2023-06-30T16:58:16.761Z,35.91
2023-06-30T17:00:19.548Z,35.96
2023-06-30T17:02:24.086Z,35.55
2023-06-30T17:04:25.834Z,36.14
2023-06-30T17:06:27.547Z,36.01
2023-06-30T17:08:29.302Z,35.66
2023-06-30T17:10:31.069Z,35.45
2023-06-30T17:12:32.971Z,35.69
2023-06-30T17:14:34.943Z,35.40
2023-06-30T17:16:37.042Z,35.88
2023-06-30T17:18:42.661Z,36.19
2023-06-30T17:20:44.461Z,35.78
2023-06-30T17:22:47.256Z,35.94
2023-06-30T17:24:49.338Z,35.79
2023-06-30T17:26:51.053Z,35.41
2023-06-30T17:28:55.924Z,35.66
2023-06-30T17:30:58.095Z,35.76
2023-06-30T17:33:00.008Z,34.72
2023-06-30T17:35:04.003Z,35.88
2023-06-30T17:37:08.029Z,35.76
2023-06-30T17:39:09.983Z,36.13
2023-06-30T17:41:11.988Z,35.59
2023-06-30T17:43:13.722Z,36.06
2023-06-30T17:45:15.463Z,35.42
2023-06-30T17:47:17.295Z,35.53
2023-06-30T17:49:22.438Z,35.38
2023-06-30T17:51:25.584Z,35.60
2023-06-30T17:53:27.481Z,35.87
2023-06-30T17:55:29.414Z,35.65
2023-06-30T17:57:31.156Z,35.28
2023-06-30T17:59:33.060Z,35.40
2023-06-30T18:01:34.899Z,35.23
2023-06-30T18:03:36.778Z,35.40
2023-06-30T18:05:40.737Z,35.73
2023-06-30T18:07:43.887Z,35.33
2023-06-30T18:09:46.037Z,34.79
2023-06-30T18:11:47.833Z,35.53
2023-06-30T18:13:49.585Z,35.42
2023-06-30T18:15:51.258Z,34.72
2023-06-30T18:17:53.237Z,35.25
2023-06-30T18:19:55.448Z,35.77
2023-06-30T18:21:57.224Z,34.87
2023-06-30T18:24:00.215Z,34.74
2023-06-30T18:26:03.992Z,35.59
2023-06-30T18:28:05.849Z,34.28
2023-06-30T18:30:09.056Z,33.44
2023-06-30T18:32:10.872Z,34.18
2023-06-30T18:34:12.629Z,34.90
2023-06-30T18:36:14.576Z,35.00
2023-06-30T18:38:16.380Z,34.84
2023-06-30T18:40:19.558Z,35.12
2023-06-30T18:42:21.194Z,35.44
2023-06-30T18:44:22.920Z,35.03
2023-06-30T18:46:26.029Z,35.28
2023-06-30T18:48:27.836Z,33.55
2023-06-30T18:50:29.792Z,33.59
2023-06-30T18:52:31.496Z,34.48
2023-06-30T18:54:33.192Z,35.26
2023-06-30T18:56:36.697Z,36.05
2023-06-30T18:58:38.335Z,34.21
2023-06-30T19:00:39.999Z,35.77
2023-06-30T19:02:44.011Z,35.94
2023-06-30T19:04:45.766Z,34.10
2023-06-30T19:06:47.636Z,35.13
2023-06-30T19:08:50.646Z,36.02
2023-06-30T19:10:52.292Z,36.20
2023-06-30T19:12:55.669Z,35.08
2023-06-30T19:14:57.450Z,35.62
2023-06-30T19:16:59.312Z,36.14
2023-06-30T19:19:01.042Z,34.98
2023-06-30T19:21:02.942Z,36.06
2023-06-30T19:23:04.854Z,35.49
2023-06-30T19:25:07.281Z,35.50
2023-06-30T19:27:09.005Z,36.21
2023-06-30T19:29:12.305Z,35.27
2023-06-30T19:31:14.090Z,35.42
2023-06-30T19:33:15.865Z,35.91
2023-06-30T19:35:17.565Z,33.89
2023-06-30T19:37:19.321Z,35.37
2023-06-30T19:39:21.187Z,35.39
2023-06-30T19:41:22.894Z,36.05
2023-06-30T19:43:24.626Z,35.26
2023-06-30T19:45:27.932Z,35.40
2023-06-30T19:47:30.054Z,34.53
2023-06-30T19:49:31.886Z,33.75
2023-06-30T19:51:34.206Z,33.32
2023-06-30T19:53:36.127Z,34.68
2023-06-30T19:55:37.964Z,34.80
2023-06-30T19:57:40.078Z,33.76
2023-06-30T19:59:41.899Z,32.04
2023-06-30T20:01:45.109Z,32.68
2023-06-30T20:03:47.471Z,34.01
2023-06-30T20:05:49.766Z,34.41
2023-06-30T20:07:54.442Z,34.60
2023-06-30T20:09:56.424Z,36.34
2023-06-30T20:11:58.153Z,34.41
2023-06-30T20:14:00.021Z,35.49
2023-06-30T20:16:02.189Z,36.01
2023-06-30T20:18:05.580Z,35.52
2023-06-30T20:20:08.814Z,34.52
2023-06-30T20:22:10.751Z,35.89
2023-06-30T20:24:12.594Z,35.88
2023-06-30T20:26:14.312Z,36.55
2023-06-30T20:28:16.523Z,35.42
2023-06-30T20:30:18.398Z,35.97
2023-06-30T20:32:20.226Z,35.99
2023-06-30T20:34:23.879Z,35.49
2023-06-30T20:36:25.684Z,35.73
2023-06-30T20:38:27.331Z,33.22
2023-06-30T20:40:29.311Z,33.79
2023-06-30T20:42:33.102Z,34.01
2023-06-30T20:44:35.085Z,34.49
2023-06-30T20:46:36.934Z,34.00
2023-06-30T20:48:38.653Z,34.67
2023-06-30T20:50:41.814Z,35.20
2023-06-30T20:52:43.526Z,35.44
2023-06-30T20:54:45.299Z,36.02
2023-06-30T20:56:47.119Z,37.86
2023-06-30T20:58:48.841Z,36.84
2023-06-30T21:00:50.517Z,36.87
2023-06-30T21:02:54.664Z,37.82
2023-06-30T21:04:56.709Z,37.87
2023-06-30T21:07:00.008Z,37.74
2023-06-30T21:09:01.989Z,37.79
2023-06-30T21:11:04.175Z,37.42
2023-06-30T21:13:06.009Z,36.75
2023-06-30T21:15:08.593Z,36.51
2023-06-30T21:17:11.181Z,37.09
2023-06-30T21:19:12.931Z,35.99
2023-06-30T21:21:14.648Z,35.86
2023-06-30T21:23:17.736Z,36.22
2023-06-30T21:25:19.502Z,36.59
2023-06-30T21:27:21.210Z,35.67
2023-06-30T21:29:23.072Z,36.81
2023-06-30T21:31:25.116Z,37.77
2023-06-30T21:33:26.963Z,37.54
2023-06-30T21:35:28.679Z,37.05
2023-06-30T21:37:30.380Z,37.83
2023-06-30T21:39:33.404Z,37.39
2023-06-30T21:41:36.614Z,36.24
2023-06-30T21:43:38.303Z,36.92
2023-06-30T21:45:39.870Z,36.46
2023-06-30T21:47:41.661Z,35.27
2023-06-30T21:49:43.306Z,36.22
2023-06-30T21:51:44.903Z,36.22
2023-06-30T21:53:46.681Z,36.52
2023-06-30T21:55:49.905Z,37.35
2023-06-30T21:57:51.557Z,37.49
2023-06-30T21:59:53.332Z,37.41
2023-06-30T22:01:55.084Z,37.28
2023-06-30T22:03:56.922Z,36.88
2023-06-30T22:05:58.846Z,37.59
2023-06-30T22:08:00.525Z,38.25
2023-06-30T22:10:02.196Z,37.71
2023-06-30T22:12:06.437Z,37.65
2023-06-30T22:14:08.444Z,37.80
2023-06-30T22:16:10.156Z,37.39
2023-06-30T22:18:14.104Z,38.17
2023-06-30T22:20:15.772Z,38.63
2023-06-30T22:22:17.387Z,38.75
2023-06-30T22:24:19.146Z,39.03
2023-06-30T22:26:20.844Z,38.58
2023-06-30T22:28:23.909Z,38.60
2023-06-30T22:30:27.474Z,38.76
2023-06-30T22:32:29.149Z,38.97
2023-06-30T22:34:30.842Z,39.23
2023-06-30T22:36:32.553Z,38.88
2023-06-30T22:38:34.233Z,38.60
2023-06-30T22:40:35.962Z,38.59
2023-06-30T22:42:37.616Z,39.15
2023-06-30T22:44:40.660Z,39.09
2023-06-30T22:46:42.302Z,39.52
2023-06-30T22:48:44.601Z,40.04
2023-06-30T22:50:46.640Z,39.65
2023-06-30T22:52:48.551Z,40.31
2023-06-30T22:54:50.473Z,39.92
2023-06-30T22:56:52.185Z,40.24
2023-06-30T22:58:55.030Z,39.43
2023-06-30T23:00:58.199Z,38.70
2023-06-30T23:03:00.049Z,38.76
2023-06-30T23:05:02.047Z,39.14
2023-06-30T23:07:04.530Z,39.32
2023-06-30T23:09:06.273Z,39.73
2023-06-30T23:11:07.898Z,39.53
2023-06-30T23:13:09.615Z,39.29
2023-06-30T23:15:11.664Z,38.96
2023-06-30T23:17:14.845Z,39.10
2023-06-30T23:19:16.637Z,38.98
2023-06-30T23:21:18.319Z,39.35
2023-06-30T23:23:19.993Z,38.98
2023-06-30T23:25:24.830Z,38.99
2023-06-30T23:27:26.555Z,38.78
2023-06-30T23:29:28.303Z,38.39
2023-06-30T23:31:30.176Z,39.01
2023-06-30T23:33:33.282Z,39.23
2023-06-30T23:35:34.949Z,39.58
2023-06-30T23:37:36.731Z,39.77
2023-06-30T23:39:39.637Z,39.89
2023-06-30T23:41:41.305Z,39.49
2023-06-30T23:43:43.000Z,39.75
2023-06-30T23:45:44.687Z,40.10
2023-06-30T23:47:46.345Z,40.53
2023-06-30T23:49:49.532Z,39.97
2023-06-30T23:51:51.231Z,39.98
2023-06-30T23:53:52.902Z,39.88
2023-06-30T23:55:54.612Z,40.47
2023-06-30T23:57:56.353Z,40.61
2023-06-30T23:59:58.045Z,40.64
